createdAt,value
2017-06-17T00:00:16.290Z,0
2017-06-17T00:00:42.386Z,0
2017-06-17T00:01:08.529Z,0
2017-06-17T00:01:34.632Z,0
2017-06-17T00:02:00.757Z,0
2017-06-17T00:02:26.998Z,0
2017-06-17T00:02:53.102Z,0
2017-06-17T00:03:19.263Z,0
2017-06-17T00:03:45.351Z,0
2017-06-17T00:04:11.473Z,0
2017-06-17T00:04:37.578Z,0
2017-06-17T00:05:03.667Z,0
2017-06-17T00:05:29.768Z,0
2017-06-17T00:05:55.862Z,0
2017-06-17T00:06:22.003Z,0
2017-06-17T00:06:48.138Z,0
2017-06-17T00:07:14.225Z,0
2017-06-17T00:07:40.351Z,0
2017-06-17T00:08:06.457Z,0
2017-06-17T00:08:32.576Z,0
2017-06-17T00:08:58.674Z,0
2017-06-17T00:09:24.780Z,0
2017-06-17T00:09:50.875Z,0
2017-06-17T00:10:16.989Z,0
2017-06-17T00:10:43.122Z,0
2017-06-17T00:11:09.248Z,0
2017-06-17T00:11:35.355Z,0
2017-06-17T00:12:01.445Z,0
2017-06-17T00:12:27.541Z,0
2017-06-17T00:12:53.646Z,0
2017-06-17T00:13:19.739Z,0
2017-06-17T00:13:45.832Z,0
2017-06-17T00:14:11.941Z,0
2017-06-17T00:14:38.037Z,0
2017-06-17T00:15:04.175Z,0
2017-06-17T00:15:30.282Z,0
2017-06-17T00:15:56.379Z,0
2017-06-17T00:16:22.479Z,0
2017-06-17T00:16:48.572Z,0
2017-06-17T00:17:14.712Z,0
2017-06-17T00:17:40.821Z,0
2017-06-17T00:18:06.915Z,0
2017-06-17T00:18:33.004Z,0
2017-06-17T00:18:59.139Z,0
2017-06-17T00:19:25.238Z,0
2017-06-17T00:19:51.351Z,0
2017-06-17T00:20:17.479Z,0
2017-06-17T00:20:43.583Z,0
2017-06-17T00:21:09.670Z,0
2017-06-17T00:21:35.771Z,0
2017-06-17T00:22:01.864Z,0
2017-06-17T00:22:27.968Z,0
2017-06-17T00:22:54.067Z,0
2017-06-17T00:23:20.157Z,0
2017-06-17T00:23:46.282Z,0
2017-06-17T00:24:12.442Z,0
2017-06-17T00:24:38.556Z,0
2017-06-17T00:25:04.680Z,0
2017-06-17T00:25:30.787Z,0
2017-06-17T00:25:56.878Z,0
2017-06-17T00:26:22.980Z,0
2017-06-17T00:26:49.082Z,0
2017-06-17T00:27:15.229Z,0
2017-06-17T00:27:41.322Z,0
2017-06-17T00:28:07.431Z,0
2017-06-17T00:28:33.527Z,0
2017-06-17T00:28:59.618Z,0
2017-06-17T00:29:25.723Z,0
2017-06-17T00:29:51.852Z,0
2017-06-17T00:30:17.940Z,0
2017-06-17T00:30:44.042Z,0
2017-06-17T00:31:10.148Z,0
2017-06-17T00:31:36.234Z,0
2017-06-17T00:32:02.358Z,0
2017-06-17T00:32:28.463Z,0
2017-06-17T00:32:54.555Z,0
2017-06-17T00:33:20.656Z,0
2017-06-17T00:33:46.745Z,0
2017-06-17T00:34:12.847Z,0
2017-06-17T00:34:38.953Z,0
2017-06-17T00:35:05.041Z,0
2017-06-17T00:35:31.164Z,0
2017-06-17T00:35:57.269Z,0
2017-06-17T00:36:23.360Z,0
2017-06-17T00:36:49.457Z,0
2017-06-17T00:37:15.587Z,0
2017-06-17T00:37:41.680Z,0
2017-06-17T00:38:07.770Z,0
2017-06-17T00:38:33.873Z,0
2017-06-17T00:38:59.972Z,0
2017-06-17T00:39:26.076Z,0
2017-06-17T00:39:52.166Z,0
2017-06-17T00:40:18.285Z,0
2017-06-17T00:40:44.391Z,0
2017-06-17T00:41:10.503Z,0
2017-06-17T00:41:36.623Z,0
2017-06-17T00:42:02.758Z,0
2017-06-17T00:42:28.858Z,0
2017-06-17T00:42:54.944Z,0
2017-06-17T00:43:21.051Z,0
2017-06-17T00:43:47.150Z,0
2017-06-17T00:44:13.274Z,0
2017-06-17T00:44:39.368Z,0
2017-06-17T00:45:05.457Z,0
2017-06-17T00:45:31.565Z,0
2017-06-17T00:45:57.662Z,0
2017-06-17T00:46:23.779Z,0
2017-06-17T00:46:49.885Z,0
2017-06-17T00:47:16.038Z,0
2017-06-17T00:47:42.128Z,0
2017-06-17T00:48:08.253Z,0
2017-06-17T00:48:34.387Z,0
2017-06-17T00:49:00.475Z,0
2017-06-17T00:49:26.576Z,0
2017-06-17T00:49:52.696Z,0
2017-06-17T00:50:18.800Z,0
2017-06-17T00:50:44.897Z,0
2017-06-17T00:51:10.988Z,0
2017-06-17T00:51:37.090Z,0
2017-06-17T00:52:03.223Z,0
2017-06-17T00:52:29.311Z,0
2017-06-17T00:52:55.411Z,0
2017-06-17T00:53:21.516Z,0
2017-06-17T00:53:47.607Z,0
2017-06-17T00:54:13.726Z,0
2017-06-17T00:54:39.831Z,0
2017-06-17T00:55:05.924Z,0
2017-06-17T00:55:32.029Z,0
2017-06-17T00:55:58.117Z,0
2017-06-17T00:56:24.215Z,0
2017-06-17T00:56:50.321Z,0
2017-06-17T00:57:16.411Z,0
2017-06-17T00:57:42.507Z,0
2017-06-17T00:58:08.612Z,0
2017-06-17T00:58:34.704Z,0
2017-06-17T00:59:00.793Z,0
2017-06-17T00:59:26.902Z,0
2017-06-17T00:59:52.998Z,0
2017-06-17T01:00:19.089Z,0
2017-06-17T01:00:45.196Z,0
2017-06-17T01:01:11.289Z,0
2017-06-17T01:01:37.422Z,0
2017-06-17T01:02:03.517Z,0
2017-06-17T01:02:29.607Z,0
2017-06-17T01:02:55.742Z,0
2017-06-17T01:03:21.837Z,0
2017-06-17T01:03:47.951Z,0
2017-06-17T01:04:14.084Z,0
2017-06-17T01:04:40.184Z,0
2017-06-17T01:05:06.273Z,0
2017-06-17T01:05:32.375Z,0
2017-06-17T01:05:58.480Z,0
2017-06-17T01:06:24.574Z,0
2017-06-17T01:06:50.674Z,0
2017-06-17T01:07:16.784Z,0
2017-06-17T01:07:42.917Z,0
2017-06-17T01:08:09.017Z,0
2017-06-17T01:08:35.106Z,0
2017-06-17T01:09:01.209Z,0
2017-06-17T01:09:27.314Z,0
2017-06-17T01:09:53.401Z,0
2017-06-17T01:10:19.576Z,0
2017-06-17T01:10:45.684Z,0
2017-06-17T01:11:11.775Z,0
2017-06-17T01:11:37.872Z,0
2017-06-17T01:12:04.005Z,0
2017-06-17T01:12:30.097Z,0
2017-06-17T01:12:56.186Z,0
2017-06-17T01:13:22.295Z,0
2017-06-17T01:13:48.396Z,0
2017-06-17T01:14:14.485Z,0
2017-06-17T01:14:40.592Z,0
2017-06-17T01:15:06.773Z,0
2017-06-17T01:15:32.862Z,0
2017-06-17T01:15:58.966Z,0
2017-06-17T01:16:25.072Z,0
2017-06-17T01:16:51.182Z,0
2017-06-17T01:17:17.309Z,0
2017-06-17T01:17:43.403Z,0
2017-06-17T01:18:09.507Z,0
2017-06-17T01:18:35.634Z,0
2017-06-17T01:19:01.747Z,0
2017-06-17T01:19:27.849Z,0
2017-06-17T01:19:53.954Z,0
2017-06-17T01:20:20.042Z,0
2017-06-17T01:20:46.170Z,0
2017-06-17T01:21:12.274Z,0
2017-06-17T01:21:38.390Z,0
2017-06-17T01:22:04.484Z,0
2017-06-17T01:22:30.616Z,0
2017-06-17T01:22:56.756Z,0
2017-06-17T01:23:23.113Z,0
2017-06-17T01:23:49.313Z,0
2017-06-17T01:24:15.645Z,0
2017-06-17T01:24:42.037Z,0
2017-06-17T01:25:08.336Z,0
2017-06-17T01:25:34.792Z,0
2017-06-17T01:26:00.963Z,0
2017-06-17T01:26:27.179Z,0
2017-06-17T01:26:53.467Z,0
2017-06-17T01:27:20.108Z,0
2017-06-17T01:27:46.387Z,0
2017-06-17T01:28:12.413Z,0
2017-06-17T01:28:38.517Z,0
2017-06-17T01:29:04.635Z,0
2017-06-17T01:29:30.717Z,0
2017-06-17T01:29:56.863Z,0
2017-06-17T01:30:22.956Z,0
2017-06-17T01:30:49.062Z,0
2017-06-17T01:31:15.986Z,0
2017-06-17T01:31:42.118Z,0
2017-06-17T01:32:09.845Z,0
2017-06-17T01:32:37.558Z,0
2017-06-17T01:33:05.440Z,0
2017-06-17T01:33:33.060Z,0
2017-06-17T01:33:59.857Z,0
2017-06-17T01:34:27.489Z,0
2017-06-17T01:34:54.738Z,0
2017-06-17T01:35:21.483Z,0
2017-06-17T01:35:49.401Z,0
2017-06-17T01:36:16.557Z,0
2017-06-17T01:36:44.148Z,0
2017-06-17T01:37:10.237Z,0
2017-06-17T01:37:36.325Z,0
2017-06-17T01:38:02.499Z,0
2017-06-17T01:38:28.623Z,0
2017-06-17T01:38:54.711Z,0
2017-06-17T01:39:20.817Z,0
2017-06-17T01:39:46.971Z,0
2017-06-17T01:40:13.071Z,0
2017-06-17T01:40:39.200Z,0
2017-06-17T01:41:05.282Z,0
2017-06-17T01:41:31.390Z,0
2017-06-17T01:41:57.484Z,0
2017-06-17T01:42:23.575Z,0
2017-06-17T01:42:49.682Z,0
2017-06-17T01:43:15.780Z,0
2017-06-17T01:43:41.872Z,0
2017-06-17T01:44:07.974Z,0
2017-06-17T01:44:34.082Z,0
2017-06-17T01:45:00.181Z,0
2017-06-17T01:45:26.304Z,0
2017-06-17T01:45:52.548Z,0
2017-06-17T01:46:18.654Z,0
2017-06-17T01:46:44.754Z,0
2017-06-17T01:47:10.843Z,0
2017-06-17T01:47:36.945Z,0
2017-06-17T01:48:03.051Z,0
2017-06-17T01:48:29.139Z,0
2017-06-17T01:48:55.241Z,0
2017-06-17T01:49:21.345Z,0
2017-06-17T01:49:47.436Z,0
2017-06-17T01:50:13.532Z,0
2017-06-17T01:50:39.634Z,0
2017-06-17T01:51:05.725Z,0
2017-06-17T01:51:32.595Z,0
2017-06-17T01:52:00.178Z,0
2017-06-17T01:52:26.962Z,0
2017-06-17T01:52:53.068Z,0
2017-06-17T01:53:19.157Z,0
2017-06-17T01:53:45.252Z,0
2017-06-17T01:54:11.357Z,0
2017-06-17T01:54:37.451Z,0
2017-06-17T01:55:03.566Z,0
2017-06-17T01:55:29.673Z,0
2017-06-17T01:55:55.796Z,0
2017-06-17T01:56:21.886Z,0
2017-06-17T01:56:47.993Z,0
2017-06-17T01:57:14.092Z,0
2017-06-17T01:57:40.208Z,0
2017-06-17T01:58:06.308Z,0
2017-06-17T01:58:32.442Z,0
2017-06-17T01:58:58.528Z,0
2017-06-17T01:59:24.629Z,0
2017-06-17T01:59:50.759Z,0
2017-06-17T02:00:16.848Z,0
2017-06-17T02:00:42.942Z,0
2017-06-17T02:01:09.047Z,0
2017-06-17T02:01:35.140Z,0
2017-06-17T02:02:01.233Z,0
2017-06-17T02:02:27.335Z,0
2017-06-17T02:02:53.436Z,0
2017-06-17T02:03:19.541Z,0
2017-06-17T02:03:45.855Z,0
2017-06-17T02:04:11.948Z,0
2017-06-17T02:04:38.054Z,0
2017-06-17T02:05:04.146Z,0
2017-06-17T02:05:30.254Z,0
2017-06-17T02:05:56.367Z,0
2017-06-17T02:06:22.465Z,0
2017-06-17T02:06:48.556Z,0
2017-06-17T02:07:14.661Z,0
2017-06-17T02:07:40.789Z,0
2017-06-17T02:08:06.935Z,0
2017-06-17T02:08:33.030Z,0
2017-06-17T02:08:59.144Z,0
2017-06-17T02:09:25.250Z,0
2017-06-17T02:09:51.348Z,0
2017-06-17T02:10:17.460Z,0
2017-06-17T02:10:43.566Z,0
2017-06-17T02:11:09.666Z,0
2017-06-17T02:11:35.757Z,0
2017-06-17T02:12:01.859Z,0
2017-06-17T02:12:27.990Z,0
2017-06-17T02:12:54.079Z,0
2017-06-17T02:13:20.228Z,0
2017-06-17T02:13:46.319Z,0
2017-06-17T02:14:12.427Z,0
2017-06-17T02:14:38.525Z,0
2017-06-17T02:15:04.615Z,0
2017-06-17T02:15:30.744Z,0
2017-06-17T02:15:56.849Z,0
2017-06-17T02:16:22.964Z,0
2017-06-17T02:16:49.063Z,0
2017-06-17T02:17:15.168Z,0
2017-06-17T02:17:41.258Z,0
2017-06-17T02:18:07.353Z,0
2017-06-17T02:18:33.486Z,0
2017-06-17T02:18:59.580Z,0
2017-06-17T02:19:25.686Z,0
2017-06-17T02:19:51.773Z,0
2017-06-17T02:20:17.873Z,0
2017-06-17T02:20:44.006Z,0
2017-06-17T02:21:10.095Z,0
2017-06-17T02:21:36.191Z,0
2017-06-17T02:22:02.295Z,0
2017-06-17T02:22:28.387Z,0
2017-06-17T02:22:54.504Z,0
2017-06-17T02:23:20.641Z,0
2017-06-17T02:23:46.763Z,0
2017-06-17T02:24:12.879Z,0
2017-06-17T02:24:39.010Z,4
2017-06-17T02:25:05.104Z,4
2017-06-17T02:25:31.207Z,4
2017-06-17T02:25:57.354Z,4
2017-06-17T02:26:23.445Z,4
2017-06-17T02:26:49.581Z,4
2017-06-17T02:27:15.678Z,0
2017-06-17T02:27:41.792Z,0
2017-06-17T02:28:07.899Z,0
2017-06-17T02:28:33.999Z,4
2017-06-17T02:29:00.090Z,4
2017-06-17T02:29:26.216Z,4
2017-06-17T02:29:52.323Z,4
2017-06-17T02:30:18.417Z,4
2017-06-17T02:30:44.512Z,4
2017-06-17T02:31:10.626Z,4
2017-06-17T02:31:36.756Z,4
2017-06-17T02:32:02.853Z,4
2017-06-17T02:32:29.014Z,4
2017-06-17T02:32:55.144Z,4
2017-06-17T02:33:21.277Z,4
2017-06-17T02:33:47.388Z,4
2017-06-17T02:34:13.512Z,8
2017-06-17T02:34:39.671Z,4
2017-06-17T02:35:05.785Z,4
2017-06-17T02:35:31.906Z,8
2017-06-17T02:35:58.031Z,4
2017-06-17T02:36:24.136Z,8
2017-06-17T02:36:50.241Z,8
2017-06-17T02:37:16.351Z,12
2017-06-17T02:37:42.447Z,8
2017-06-17T02:38:08.581Z,8
2017-06-17T02:38:34.701Z,12
2017-06-17T02:39:00.796Z,12
2017-06-17T02:39:26.928Z,16
2017-06-17T02:39:53.021Z,12
2017-06-17T02:40:19.114Z,16
2017-06-17T02:40:45.222Z,20
2017-06-17T02:41:11.318Z,20
2017-06-17T02:41:37.406Z,20
2017-06-17T02:42:03.513Z,24
2017-06-17T02:42:29.613Z,24
2017-06-17T02:42:55.703Z,24
2017-06-17T02:43:21.808Z,28
2017-06-17T02:43:47.942Z,24
2017-06-17T02:44:14.030Z,24
2017-06-17T02:44:40.131Z,28
2017-06-17T02:45:06.236Z,28
2017-06-17T02:45:32.326Z,32
2017-06-17T02:45:58.423Z,32
2017-06-17T02:46:24.528Z,32
2017-06-17T02:46:50.622Z,36
2017-06-17T02:47:16.727Z,40
2017-06-17T02:47:42.841Z,40
2017-06-17T02:48:08.940Z,44
2017-06-17T02:48:35.074Z,44
2017-06-17T02:49:01.163Z,48
2017-06-17T02:49:27.286Z,48
2017-06-17T02:49:53.392Z,48
2017-06-17T02:50:19.512Z,52
2017-06-17T02:50:45.602Z,56
2017-06-17T02:51:11.711Z,56
2017-06-17T02:51:37.836Z,56
2017-06-17T02:52:03.925Z,60
2017-06-17T02:52:30.033Z,60
2017-06-17T02:52:56.127Z,68
2017-06-17T02:53:22.259Z,68
2017-06-17T02:53:48.362Z,72
2017-06-17T02:54:14.455Z,76
2017-06-17T02:54:40.564Z,76
2017-06-17T02:55:06.661Z,80
2017-06-17T02:55:32.751Z,84
2017-06-17T02:55:58.855Z,84
2017-06-17T02:56:24.983Z,92
2017-06-17T02:56:51.073Z,92
2017-06-17T02:57:17.224Z,96
2017-06-17T02:57:43.330Z,100
2017-06-17T02:58:09.450Z,108
2017-06-17T02:58:35.543Z,112
2017-06-17T02:59:01.633Z,112
2017-06-17T02:59:27.739Z,120
2017-06-17T02:59:53.836Z,120
2017-06-17T03:00:19.928Z,124
2017-06-17T03:00:46.058Z,128
2017-06-17T03:01:12.162Z,132
2017-06-17T03:01:38.247Z,136
2017-06-17T03:02:04.346Z,140
2017-06-17T03:02:30.455Z,148
2017-06-17T03:02:56.544Z,152
2017-06-17T03:03:22.643Z,160
2017-06-17T03:03:48.738Z,160
2017-06-17T03:04:14.866Z,168
2017-06-17T03:04:40.972Z,172
2017-06-17T03:05:07.096Z,176
2017-06-17T03:05:33.195Z,180
2017-06-17T03:05:59.303Z,184
2017-06-17T03:06:25.391Z,188
2017-06-17T03:06:51.486Z,196
2017-06-17T03:07:17.594Z,200
2017-06-17T03:07:43.689Z,212
2017-06-17T03:08:09.780Z,216
2017-06-17T03:08:35.917Z,224
2017-06-17T03:09:02.013Z,224
2017-06-17T03:09:28.118Z,228
2017-06-17T03:09:54.230Z,232
2017-06-17T03:10:20.327Z,240
2017-06-17T03:10:46.434Z,244
2017-06-17T03:11:12.555Z,252
2017-06-17T03:11:38.644Z,248
2017-06-17T03:12:04.754Z,256
2017-06-17T03:12:30.880Z,256
2017-06-17T03:12:56.971Z,264
2017-06-17T03:13:23.079Z,264
2017-06-17T03:13:49.176Z,268
2017-06-17T03:14:15.265Z,272
2017-06-17T03:14:41.368Z,280
2017-06-17T03:15:07.458Z,288
2017-06-17T03:15:33.593Z,296
2017-06-17T03:15:59.689Z,296
2017-06-17T03:16:25.778Z,300
2017-06-17T03:16:51.907Z,296
2017-06-17T03:17:18.008Z,296
2017-06-17T03:17:44.122Z,300
2017-06-17T03:18:10.251Z,308
2017-06-17T03:18:36.357Z,316
2017-06-17T03:19:02.468Z,324
2017-06-17T03:19:28.566Z,328
2017-06-17T03:19:54.675Z,328
2017-06-17T03:20:20.765Z,328
2017-06-17T03:20:46.868Z,332
2017-06-17T03:21:12.958Z,332
2017-06-17T03:21:39.062Z,324
2017-06-17T03:22:05.168Z,316
2017-06-17T03:22:31.280Z,312
2017-06-17T03:22:57.405Z,304
2017-06-17T03:23:23.564Z,300
2017-06-17T03:23:49.654Z,292
2017-06-17T03:24:15.749Z,300
2017-06-17T03:24:41.855Z,304
2017-06-17T03:25:07.948Z,308
2017-06-17T03:25:34.039Z,312
2017-06-17T03:26:00.171Z,316
2017-06-17T03:26:26.269Z,320
2017-06-17T03:26:52.357Z,324
2017-06-17T03:27:18.462Z,332
2017-06-17T03:27:44.562Z,348
2017-06-17T03:28:10.652Z,364
2017-06-17T03:28:36.755Z,376
2017-06-17T03:29:02.889Z,384
2017-06-17T03:29:28.976Z,392
2017-06-17T03:29:55.073Z,400
2017-06-17T03:30:21.181Z,412
2017-06-17T03:30:47.271Z,424
2017-06-17T03:31:13.370Z,428
2017-06-17T03:31:39.465Z,440
2017-06-17T03:32:05.569Z,444
2017-06-17T03:32:31.676Z,452
2017-06-17T03:32:57.764Z,460
2017-06-17T03:33:23.864Z,460
2017-06-17T03:33:50.025Z,468
2017-06-17T03:34:16.145Z,476
2017-06-17T03:34:42.264Z,496
2017-06-17T03:35:08.371Z,508
2017-06-17T03:35:34.492Z,528
2017-06-17T03:36:00.582Z,540
2017-06-17T03:36:26.689Z,552
2017-06-17T03:36:52.784Z,568
2017-06-17T03:37:18.888Z,588
2017-06-17T03:37:44.978Z,616
2017-06-17T03:38:11.074Z,628
2017-06-17T03:38:37.209Z,636
2017-06-17T03:39:03.302Z,648
2017-06-17T03:39:29.392Z,668
2017-06-17T03:39:55.499Z,688
2017-06-17T03:40:21.597Z,712
2017-06-17T03:40:47.687Z,728
2017-06-17T03:41:13.790Z,752
2017-06-17T03:41:39.918Z,772
2017-06-17T03:42:06.034Z,784
2017-06-17T03:42:32.137Z,796
2017-06-17T03:42:58.227Z,800
2017-06-17T03:43:24.363Z,788
2017-06-17T03:43:50.457Z,780
2017-06-17T03:44:16.548Z,772
2017-06-17T03:44:42.654Z,764
2017-06-17T03:45:08.754Z,748
2017-06-17T03:45:34.845Z,712
2017-06-17T03:46:00.947Z,684
2017-06-17T03:46:27.052Z,672
2017-06-17T03:46:53.167Z,676
2017-06-17T03:47:19.268Z,680
2017-06-17T03:47:45.374Z,688
2017-06-17T03:48:11.464Z,696
2017-06-17T03:48:37.593Z,700
2017-06-17T03:49:03.685Z,708
2017-06-17T03:49:29.787Z,704
2017-06-17T03:49:55.923Z,712
2017-06-17T03:50:22.034Z,720
2017-06-17T03:50:48.132Z,744
2017-06-17T03:51:14.237Z,784
2017-06-17T03:51:40.326Z,836
2017-06-17T03:52:06.423Z,876
2017-06-17T03:52:32.527Z,916
2017-06-17T03:52:58.621Z,956
2017-06-17T03:53:24.711Z,996
2017-06-17T03:53:50.815Z,1024
2017-06-17T03:54:16.914Z,1040
2017-06-17T03:54:43.048Z,1040
2017-06-17T03:55:09.139Z,1040
2017-06-17T03:55:35.233Z,1056
2017-06-17T03:56:01.367Z,1084
2017-06-17T03:56:27.489Z,1096
2017-06-17T03:56:53.578Z,1076
2017-06-17T03:57:19.686Z,1048
2017-06-17T03:57:45.782Z,1032
2017-06-17T03:58:11.869Z,1020
2017-06-17T03:58:37.975Z,1000
2017-06-17T03:59:04.076Z,996
2017-06-17T03:59:30.227Z,1004
2017-06-17T03:59:56.349Z,1004
2017-06-17T04:00:22.438Z,1016
2017-06-17T04:00:48.545Z,1008
2017-06-17T04:01:14.640Z,1012
2017-06-17T04:01:40.735Z,1024
2017-06-17T04:02:06.866Z,1044
2017-06-17T04:02:32.967Z,1068
2017-06-17T04:02:59.057Z,1100
2017-06-17T04:03:25.184Z,1124
2017-06-17T04:03:51.288Z,1152
2017-06-17T04:04:17.402Z,1180
2017-06-17T04:04:43.499Z,1212
2017-06-17T04:05:09.594Z,1260
2017-06-17T04:05:35.730Z,1308
2017-06-17T04:06:01.858Z,1348
2017-06-17T04:06:27.971Z,1384
2017-06-17T04:06:54.074Z,1448
2017-06-17T04:07:20.180Z,1552
2017-06-17T04:07:46.289Z,1652
2017-06-17T04:08:12.388Z,1708
2017-06-17T04:08:38.494Z,1740
2017-06-17T04:09:04.585Z,1760
2017-06-17T04:09:30.682Z,1796
2017-06-17T04:09:56.785Z,1820
2017-06-17T04:10:22.879Z,1824
2017-06-17T04:10:48.969Z,1820
2017-06-17T04:11:15.078Z,1824
2017-06-17T04:11:41.199Z,1816
2017-06-17T04:12:07.289Z,1800
2017-06-17T04:12:33.396Z,1748
2017-06-17T04:12:59.496Z,1712
2017-06-17T04:13:25.612Z,1716
2017-06-17T04:13:51.760Z,1760
2017-06-17T04:14:17.865Z,1812
2017-06-17T04:14:43.979Z,1836
2017-06-17T04:15:10.079Z,1808
2017-06-17T04:15:36.181Z,1752
2017-06-17T04:16:02.296Z,1724
2017-06-17T04:16:28.401Z,1724
2017-06-17T04:16:54.492Z,1708
2017-06-17T04:17:20.593Z,1680
2017-06-17T04:17:46.729Z,1644
2017-06-17T04:18:12.816Z,1608
2017-06-17T04:18:38.915Z,1544
2017-06-17T04:19:05.052Z,1488
2017-06-17T04:19:31.144Z,1452
2017-06-17T04:19:57.240Z,1424
2017-06-17T04:20:23.345Z,1392
2017-06-17T04:20:49.437Z,1356
2017-06-17T04:21:15.551Z,1324
2017-06-17T04:21:41.681Z,1300
2017-06-17T04:22:07.779Z,1284
2017-06-17T04:22:33.884Z,1276
2017-06-17T04:22:59.999Z,1280
2017-06-17T04:23:26.143Z,1296
2017-06-17T04:23:52.249Z,1308
2017-06-17T04:24:18.342Z,1316
2017-06-17T04:24:44.431Z,1332
2017-06-17T04:25:10.568Z,1364
2017-06-17T04:25:36.663Z,1404
2017-06-17T04:26:02.753Z,1460
2017-06-17T04:26:28.858Z,1528
2017-06-17T04:26:54.958Z,1584
2017-06-17T04:27:21.082Z,1628
2017-06-17T04:27:47.177Z,1668
2017-06-17T04:28:13.315Z,1684
2017-06-17T04:28:39.425Z,1692
2017-06-17T04:29:05.524Z,1716
2017-06-17T04:29:31.612Z,1744
2017-06-17T04:29:57.718Z,1760
2017-06-17T04:30:23.816Z,1768
2017-06-17T04:30:49.929Z,1792
2017-06-17T04:31:16.033Z,1844
2017-06-17T04:31:42.225Z,1928
2017-06-17T04:32:08.313Z,2040
2017-06-17T04:32:34.413Z,2156
2017-06-17T04:33:00.508Z,2244
2017-06-17T04:33:26.616Z,2328
2017-06-17T04:33:52.745Z,2392
2017-06-17T04:34:18.807Z,2428
2017-06-17T04:34:44.909Z,2436
2017-06-17T04:35:11.014Z,2408
2017-06-17T04:35:37.102Z,2348
2017-06-17T04:36:03.251Z,2260
2017-06-17T04:36:29.354Z,2160
2017-06-17T04:36:55.445Z,2064
2017-06-17T04:37:21.565Z,1988
2017-06-17T04:37:47.670Z,1936
2017-06-17T04:38:13.792Z,1888
2017-06-17T04:38:39.921Z,1844
2017-06-17T04:39:06.010Z,1800
2017-06-17T04:39:32.110Z,1764
2017-06-17T04:39:58.242Z,1732
2017-06-17T04:40:24.334Z,1696
2017-06-17T04:40:50.433Z,1668
2017-06-17T04:41:16.564Z,1648
2017-06-17T04:41:42.657Z,1628
2017-06-17T04:42:08.771Z,1608
2017-06-17T04:42:34.883Z,1604
2017-06-17T04:43:00.979Z,1608
2017-06-17T04:43:27.070Z,1616
2017-06-17T04:43:53.173Z,1624
2017-06-17T04:44:19.268Z,1632
2017-06-17T04:44:45.402Z,1632
2017-06-17T04:45:11.495Z,1628
2017-06-17T04:45:37.583Z,1628
2017-06-17T04:46:03.693Z,1628
2017-06-17T04:46:29.789Z,1624
2017-06-17T04:46:55.880Z,1624
2017-06-17T04:47:21.988Z,1632
2017-06-17T04:47:48.087Z,1644
2017-06-17T04:48:14.202Z,1664
2017-06-17T04:48:40.305Z,1692
2017-06-17T04:49:06.411Z,1724
2017-06-17T04:49:32.505Z,1756
2017-06-17T04:49:58.602Z,1780
2017-06-17T04:50:24.692Z,1808
2017-06-17T04:50:50.800Z,1836
2017-06-17T04:51:16.901Z,1856
2017-06-17T04:51:43.014Z,1872
2017-06-17T04:52:09.118Z,1876
2017-06-17T04:52:35.224Z,1876
2017-06-17T04:53:01.335Z,1872
2017-06-17T04:53:27.435Z,1860
2017-06-17T04:53:53.541Z,1840
2017-06-17T04:54:19.633Z,1820
2017-06-17T04:54:45.776Z,1792
2017-06-17T04:55:11.883Z,1764
2017-06-17T04:55:38.005Z,1740
2017-06-17T04:56:04.093Z,1716
2017-06-17T04:56:30.202Z,1704
2017-06-17T04:56:56.296Z,1692
2017-06-17T04:57:22.386Z,1696
2017-06-17T04:57:48.492Z,1716
2017-06-17T04:58:14.592Z,1740
2017-06-17T04:58:40.684Z,1768
2017-06-17T04:59:06.813Z,1800
2017-06-17T04:59:32.946Z,1832
2017-06-17T04:59:59.034Z,1864
2017-06-17T05:00:25.134Z,1904
2017-06-17T05:00:51.228Z,1908
2017-06-17T05:01:17.358Z,1940
2017-06-17T05:01:43.483Z,1956
2017-06-17T05:02:09.572Z,1972
2017-06-17T05:02:35.675Z,1968
2017-06-17T05:03:01.808Z,1944
2017-06-17T05:03:27.896Z,1952
2017-06-17T05:03:53.995Z,1980
2017-06-17T05:04:20.129Z,1992
2017-06-17T05:04:46.219Z,2000
2017-06-17T05:05:12.341Z,2040
2017-06-17T05:05:38.446Z,2096
2017-06-17T05:06:04.540Z,2140
2017-06-17T05:06:30.671Z,2152
2017-06-17T05:06:56.759Z,2160
2017-06-17T05:07:22.858Z,2168
2017-06-17T05:07:48.964Z,2184
2017-06-17T05:08:15.079Z,2196
2017-06-17T05:08:41.177Z,2216
2017-06-17T05:09:07.311Z,2228
2017-06-17T05:09:33.403Z,2228
2017-06-17T05:09:59.492Z,2228
2017-06-17T05:10:25.602Z,2228
2017-06-17T05:10:51.699Z,2224
2017-06-17T05:11:17.789Z,2228
2017-06-17T05:11:43.897Z,2232
2017-06-17T05:12:09.991Z,2240
2017-06-17T05:12:36.125Z,2268
2017-06-17T05:13:02.217Z,2312
2017-06-17T05:13:28.306Z,2328
2017-06-17T05:13:54.415Z,2328
2017-06-17T05:14:20.511Z,2312
2017-06-17T05:14:46.627Z,2300
2017-06-17T05:15:12.759Z,2292
2017-06-17T05:15:38.858Z,2296
2017-06-17T05:16:04.948Z,2304
2017-06-17T05:16:31.052Z,2316
2017-06-17T05:16:57.156Z,2328
2017-06-17T05:17:23.251Z,2348
2017-06-17T05:17:49.348Z,2364
2017-06-17T05:18:15.439Z,2392
2017-06-17T05:18:41.545Z,2424
2017-06-17T05:19:07.673Z,2464
2017-06-17T05:19:33.762Z,2512
2017-06-17T05:19:59.865Z,2564
2017-06-17T05:20:25.972Z,2612
2017-06-17T05:20:52.058Z,2660
2017-06-17T05:21:18.160Z,2704
2017-06-17T05:21:44.267Z,2736
2017-06-17T05:22:10.357Z,2760
2017-06-17T05:22:36.454Z,2792
2017-06-17T05:23:02.579Z,2832
2017-06-17T05:23:28.707Z,2888
2017-06-17T05:23:54.812Z,2960
2017-06-17T05:24:20.926Z,3052
2017-06-17T05:24:47.001Z,3140
2017-06-17T05:25:13.108Z,3216
2017-06-17T05:25:39.197Z,3276
2017-06-17T05:26:05.290Z,3312
2017-06-17T05:26:31.397Z,3288
2017-06-17T05:26:57.517Z,3252
2017-06-17T05:27:23.632Z,3212
2017-06-17T05:27:49.740Z,3220
2017-06-17T05:28:15.836Z,3280
2017-06-17T05:28:41.964Z,3368
2017-06-17T05:29:08.054Z,3480
2017-06-17T05:29:34.150Z,3568
2017-06-17T05:30:00.282Z,3608
2017-06-17T05:30:26.426Z,3616
2017-06-17T05:30:52.517Z,3616
2017-06-17T05:31:18.625Z,3612
2017-06-17T05:31:44.720Z,3604
2017-06-17T05:32:10.809Z,3608
2017-06-17T05:32:36.915Z,3620
2017-06-17T05:33:03.015Z,3628
2017-06-17T05:33:29.108Z,3624
2017-06-17T05:33:55.211Z,3600
2017-06-17T05:34:21.303Z,3560
2017-06-17T05:34:47.414Z,3504
2017-06-17T05:35:13.511Z,3452
2017-06-17T05:35:39.599Z,3400
2017-06-17T05:36:05.702Z,3348
2017-06-17T05:36:31.831Z,3288
2017-06-17T05:36:57.948Z,3224
2017-06-17T05:37:24.050Z,3168
2017-06-17T05:37:50.157Z,3120
2017-06-17T05:38:16.242Z,3084
2017-06-17T05:38:42.340Z,3044
2017-06-17T05:39:08.446Z,3024
2017-06-17T05:39:34.536Z,3004
2017-06-17T05:40:00.634Z,2980
2017-06-17T05:40:26.742Z,2944
2017-06-17T05:40:52.835Z,2916
2017-06-17T05:41:18.924Z,2880
2017-06-17T05:41:45.033Z,2864
2017-06-17T05:42:11.154Z,2868
2017-06-17T05:42:37.243Z,2884
2017-06-17T05:43:03.350Z,2900
2017-06-17T05:43:29.451Z,2912
2017-06-17T05:43:55.565Z,2932
2017-06-17T05:44:21.668Z,2956
2017-06-17T05:44:47.801Z,2992
2017-06-17T05:45:13.919Z,3040
2017-06-17T05:45:39.989Z,3092
2017-06-17T05:46:06.129Z,3160
2017-06-17T05:46:32.235Z,3244
2017-06-17T05:46:58.335Z,3336
2017-06-17T05:47:24.475Z,3416
2017-06-17T05:47:50.585Z,3484
2017-06-17T05:48:16.711Z,3536
2017-06-17T05:48:42.799Z,3580
2017-06-17T05:49:08.924Z,3620
2017-06-17T05:49:35.030Z,3676
2017-06-17T05:50:01.121Z,3744
2017-06-17T05:50:27.242Z,3812
2017-06-17T05:50:53.338Z,3888
2017-06-17T05:51:19.493Z,3956
2017-06-17T05:51:45.625Z,4012
2017-06-17T05:52:11.738Z,4048
2017-06-17T05:52:37.838Z,4080
2017-06-17T05:53:03.944Z,4092
2017-06-17T05:53:30.034Z,4112
2017-06-17T05:53:56.129Z,4140
2017-06-17T05:54:22.234Z,4172
2017-06-17T05:54:48.329Z,4192
2017-06-17T05:55:14.420Z,4192
2017-06-17T05:55:40.559Z,4168
2017-06-17T05:56:06.655Z,4152
2017-06-17T05:56:32.786Z,4116
2017-06-17T05:56:58.877Z,4060
2017-06-17T05:57:24.973Z,4020
2017-06-17T05:57:51.080Z,4048
2017-06-17T05:58:17.173Z,4112
2017-06-17T05:58:43.267Z,4176
2017-06-17T05:59:09.371Z,4260
2017-06-17T05:59:35.468Z,4376
2017-06-17T06:00:01.582Z,4516
2017-06-17T06:00:27.689Z,4672
2017-06-17T06:00:53.788Z,4808
2017-06-17T06:01:19.904Z,4924
2017-06-17T06:01:46.006Z,4992
2017-06-17T06:02:12.099Z,5028
2017-06-17T06:02:38.208Z,5064
2017-06-17T06:03:04.307Z,5152
2017-06-17T06:03:30.395Z,5244
2017-06-17T06:03:56.502Z,5224
2017-06-17T06:04:22.683Z,5184
2017-06-17T06:04:48.773Z,5212
2017-06-17T06:05:14.900Z,5352
2017-06-17T06:05:41.034Z,5600
2017-06-17T06:06:07.123Z,5900
2017-06-17T06:06:33.226Z,6192
2017-06-17T06:06:59.327Z,6440